This is the latest recevied weather packets stored in our database for station/object KP4FJC. If no packets are shown the sender has not sent any weather packets the latest 1 day(s).
| Time | Temp. | Humidity | Pressure | Rain* | Wind** | Luminosity | Snow |
|---|---|---|---|---|---|---|---|
| 1777995271 | 31.67° C | 65% | 1018.6 hPa | 0 mm | 3.13 m/s, 19° | 949 W/m² | - |
| 1777994962 | 31.67° C | 65% | 1018.7 hPa | 0 mm | 2.24 m/s, 113° | 935 W/m² | - |
| 1777994659 | 31.67° C | 64% | 1018.4 hPa | 0 mm | 3.58 m/s, 129° | 926 W/m² | - |
| 1777994359 | 31.11° C | 66% | 1018.5 hPa | 0 mm | 1.79 m/s, 94° | 995 W/m² | - |
| 1777994050 | 31.67° C | 63% | 1018.5 hPa | 0 mm | 0.89 m/s, 56° | 899 W/m² | - |
| 1777993748 | 30.56° C | 65% | 1018.5 hPa | 0 mm | 1.79 m/s, 120° | 460 W/m² | - |
| 1777993444 | 31.67° C | 63% | 1018.6 hPa | 0 mm | 2.68 m/s, 165° | 811 W/m² | - |
| 1777993139 | 31.11° C | 65% | 1018.4 hPa | 0 mm | 0.45 m/s, 56° | 668 W/m² | - |
| 1777992837 | 31.11° C | 64% | 1018.7 hPa | 0 mm | 1.34 m/s, 79° | 843 W/m² | - |
| 1777992534 | 31.11° C | 64% | 1018.4 hPa | 0 mm | 3.13 m/s, 62° | 873 W/m² | - |
| 1777992233 | 30.56° C | 65% | 1018.7 hPa | 0 mm | 2.68 m/s, 148° | 845 W/m² | - |
| 1777991929 | 31.11° C | 65% | 1018.6 hPa | 0 mm | 3.13 m/s, 112° | 860 W/m² | - |
| 1777991627 | 30° C | 67% | 1018.8 hPa | 0 mm | 0.45 m/s, 187° | 859 W/m² | - |
| 1777991324 | 30.56° C | 67% | 1018.8 hPa | 0 mm | 1.79 m/s, 205° | 488 W/m² | - |
| 1777991022 | 30.56° C | 68% | 1018.7 hPa | 0 mm | 1.34 m/s, 66° | 237 W/m² | - |
| 1777990719 | 30.56° C | 66% | 1018.9 hPa | 0 mm | 0.89 m/s, 77° | 908 W/m² | - |
| 1777990416 | 31.11° C | 66% | 1019 hPa | 0 mm | 0.45 m/s, 21° | 329 W/m² | - |
| 1777990112 | 30.56° C | 67% | 1018.9 hPa | 0 mm | 3.13 m/s, 137° | 814 W/m² | - |
| 1777989809 | 30.56° C | 70% | 1018.9 hPa | 0 mm | 1.79 m/s, 124° | 777 W/m² | - |
| 1777989506 | 30.56° C | 71% | 1019 hPa | 0 mm | 2.68 m/s, 103° | 749 W/m² | - |
| 1777989202 | 30° C | 71% | 1019 hPa | 0 mm | 0 m/s | 727 W/m² | - |
| 1777988898 | 30° C | 70% | 1019 hPa | 0 mm | 1.79 m/s, 146° | 710 W/m² | - |
| 1777988596 | 30° C | 71% | 1018.7 hPa | 0 mm | 1.34 m/s, 2° | 709 W/m² | - |
| 1777988292 | 30° C | 71% | 1018.9 hPa | 0 mm | 1.34 m/s, 90° | 700 W/m² | - |
| 1777987989 | 29.44° C | 72% | 1018.9 hPa | 0 mm | 1.79 m/s, 63° | 565 W/m² | - |
* Rain latest hour (hover to see other rain measurements)
** Current wind speed in m/s (hover to see current wind gust speed)